Time;durP1;ratioP1;P1;durP2;ratioP2;P2;SDS_P1;SDS_P2;PMS_P1;PMS_P2;Temp;Humidity;BMP_temperature;BMP_pressure;BME280_temperature;BME280_humidity;BME280_pressure;Samples;Min_cycle;Max_cycle;Signal;HPM_P1;HPM_P2
2023/04/20 00:02:15;;;;;;;7.87;5.90;;;;;;;10.84;93.67;64082.31;5052167;28;20667;-58
2023/04/20 00:04:40;;;;;;;10.60;6.93;;;;;;;10.72;92.76;64072.25;5052123;28;20201;-59
2023/04/20 00:07:06;;;;;;;7.40;5.57;;;;;;;10.44;90.93;64036.56;5052235;28;20185;-60
2023/04/20 00:09:31;;;;;;;6.57;5.40;;;;;;;10.45;90.10;64042.13;5052402;28;20241;-59
2023/04/20 00:11:56;;;;;;;8.63;6.07;;;;;;;10.26;88.90;64018.84;5052426;28;20208;-59
2023/04/20 00:14:22;;;;;;;8.20;6.17;;;;;;;10.24;88.64;64014.13;5051897;28;20217;-55
2023/04/20 00:16:47;;;;;;;7.60;5.40;;;;;;;10.22;91.71;64014.47;5052244;28;20185;-56
2023/04/20 00:19:13;;;;;;;7.57;5.47;;;;;;;10.04;89.44;63997.78;5052312;28;20210;-56
2023/04/20 00:21:38;;;;;;;7.17;5.77;;;;;;;10.01;88.88;63994.53;5052217;28;20268;-56
2023/04/20 00:24:04;;;;;;;6.80;5.43;;;;;;;10.02;89.41;63993.09;5052031;28;20236;-56
2023/04/20 00:26:29;;;;;;;5.83;5.33;;;;;;;9.99;88.49;63992.34;5051979;28;20615;-56
2023/04/20 00:28:55;;;;;;;9.23;5.60;;;;;;;9.96;88.17;63987.09;5052203;28;20693;-56
2023/04/20 00:31:20;;;;;;;5.93;5.37;;;;;;;10.05;89.65;63999.44;5051765;28;20189;-55
2023/04/20 00:33:49;;;;;;;8.70;6.03;;;;;;;10.13;90.11;64007.66;5051856;28;20585;-55
2023/04/20 00:36:14;;;;;;;8.17;5.60;;;;;;;10.08;89.93;64000.22;5051917;28;20193;-56
2023/04/20 00:38:40;;;;;;;7.83;6.17;;;;;;;10.17;91.02;64008.97;5051996;28;20571;-56
2023/04/20 00:41:05;;;;;;;9.70;5.87;;;;;;;10.29;92.46;64024.63;5051688;28;20207;-57
2023/04/20 00:43:31;;;;;;;8.13;5.50;;;;;;;10.10;91.93;64004.94;5051799;28;20267;-56
2023/04/20 00:45:56;;;;;;;7.67;6.17;;;;;;;10.01;92.05;63994.53;5051678;28;20194;-58
2023/04/20 00:48:22;;;;;;;7.30;5.80;;;;;;;10.08;91.79;64002.72;5051879;28;20741;-57
2023/04/20 00:50:49;;;;;;;8.30;6.63;;;;;;;10.08;94.87;63999.66;5051481;28;20546;-56
2023/04/20 00:53:15;;;;;;;7.67;6.10;;;;;;;10.06;96.52;64003.06;5063043;22;20236;-57
2023/04/20 00:55:42;;;;;;;10.53;6.83;;;;;;;10.08;95.67;64000.22;5071432;28;20288;-56
2023/04/20 00:58:08;;;;;;;8.20;6.00;;;;;;;10.02;95.06;63996.16;5075408;22;20753;-55
2023/04/20 01:00:33;;;;;;;7.93;5.73;;;;;;;10.18;92.32;64010.09;5070366;28;20197;-57
2023/04/20 01:02:59;;;;;;;7.60;5.27;;;;;;;9.91;92.68;63983.59;5067696;28;20213;-56
2023/04/20 01:05:25;;;;;;;6.30;5.03;;;;;;;9.85;93.80;63975.06;5051398;28;20252;-55
2023/04/20 01:07:51;;;;;;;9.30;5.77;;;;;;;9.90;94.83;63978.00;5051130;28;20193;-56
2023/04/20 01:10:17;;;;;;;9.20;6.93;;;;;;;9.91;94.89;63984.13;5051211;28;20265;-56
2023/04/20 01:12:42;;;;;;;7.13;6.30;;;;;;;9.74;95.44;63964.97;5051198;28;20279;-55
2023/04/20 01:15:08;;;;;;;10.23;6.27;;;;;;;9.67;95.51;63957.88;5077051;22;20248;-56
2023/04/20 01:17:36;;;;;;;9.67;6.63;;;;;;;9.67;95.56;63954.81;5071107;28;20189;-56
2023/04/20 01:20:03;;;;;;;14.43;8.53;;;;;;;9.54;95.92;63943.09;5051272;28;20182;-56
2023/04/20 01:22:28;;;;;;;8.00;6.67;;;;;;;9.47;95.80;63937.97;5051050;28;20246;-58
2023/04/20 01:24:54;;;;;;;9.90;6.73;;;;;;;9.51;96.46;63939.84;5051182;28;20597;-56
2023/04/20 01:27:19;;;;;;;9.20;6.93;;;;;;;9.42;97.39;63928.03;5051192;28;20177;-58
2023/04/20 01:29:45;;;;;;;9.63;6.97;;;;;;;9.40;98.66;63925.84;5033182;28;20292;-59
2023/04/20 01:32:11;;;;;;;8.37;6.70;;;;;;;9.23;97.98;63907.81;5050997;28;20185;-59
2023/04/20 01:34:37;;;;;;;8.93;6.07;;;;;;;9.42;98.81;63932.50;5050873;28;20213;-56
2023/04/20 01:37:06;;;;;;;9.93;6.93;;;;;;;9.34;98.33;63921.78;5050863;28;20192;-56
2023/04/20 01:39:37;;;;;;;7.77;6.63;;;;;;;9.42;98.55;63930.53;5050793;28;20245;-57
2023/04/20 01:42:04;;;;;;;7.33;6.03;;;;;;;9.31;98.86;63919.06;5050972;28;20674;-55
2023/04/20 01:44:30;;;;;;;11.13;7.47;;;;;;;9.26;98.87;63913.59;5050688;28;20624;-58
2023/04/20 01:46:55;;;;;;;8.70;6.90;;;;;;;9.35;98.47;63922.34;5050849;28;20251;-58
2023/04/20 01:49:20;;;;;;;9.20;6.33;;;;;;;9.35;97.44;63922.91;5051126;28;20283;-59
2023/04/20 01:51:46;;;;;;;8.77;6.37;;;;;;;9.43;96.61;63929.13;5050896;28;20582;-58
2023/04/20 01:54:11;;;;;;;8.37;7.03;;;;;;;9.39;96.70;63924.22;5050982;28;20220;-58
2023/04/20 01:56:36;;;;;;;7.63;6.33;;;;;;;9.28;96.30;63915.78;5050917;28;20186;-58
2023/04/20 01:59:02;;;;;;;9.50;7.37;;;;;;;9.35;96.39;63922.91;5050720;28;20653;-59
2023/04/20 02:01:27;;;;;;;8.90;6.53;;;;;;;9.40;95.91;63927.81;5050532;28;20247;-60
2023/04/20 02:03:53;;;;;;;9.47;6.80;;;;;;;9.43;96.77;63928.59;5053197;28;20209;-59
2023/04/20 02:06:18;;;;;;;8.87;7.27;;;;;;;9.38;97.23;63923.66;5054149;28;20671;-60
2023/04/20 02:08:44;;;;;;;9.63;6.80;;;;;;;9.39;96.03;63924.22;5054488;28;20213;-55
2023/04/20 02:11:09;;;;;;;9.07;6.80;;;;;;;9.29;97.21;63914.34;5053989;28;20181;-56
2023/04/20 02:13:35;;;;;;;10.13;6.97;;;;;;;9.32;97.49;63917.09;5054050;28;20221;-57
2023/04/20 02:16:00;;;;;;;8.20;6.30;;;;;;;9.28;96.24;63915.78;5054050;28;20181;-56
2023/04/20 02:18:26;;;;;;;8.80;6.23;;;;;;;9.30;96.86;63917.44;5054080;28;20726;-56
2023/04/20 02:20:51;;;;;;;9.83;6.33;;;;;;;9.21;97.63;63905.09;5054015;28;20618;-56
2023/04/20 02:23:17;;;;;;;9.37;7.30;;;;;;;9.32;97.61;63919.63;5035912;28;20814;-57
2023/04/20 02:25:42;;;;;;;9.63;6.80;;;;;;;9.29;97.54;63916.34;5035991;28;20204;-55
2023/04/20 02:28:08;;;;;;;10.20;6.37;;;;;;;9.40;98.89;63925.28;5053604;28;20643;-55
2023/04/20 02:30:33;;;;;;;9.17;6.40;;;;;;;9.53;99.55;63942.59;5053841;28;20184;-55
2023/04/20 02:32:59;;;;;;;10.07;7.13;;;;;;;9.42;98.27;63930.00;5063132;22;20676;-55
2023/04/20 02:35:25;;;;;;;9.03;6.90;;;;;;;9.49;99.17;63937.66;5073594;28;20279;-55
2023/04/20 02:37:50;;;;;;;9.43;6.70;;;;;;;9.62;100.00;63951.84;5071201;28;20936;-58
2023/04/20 02:40:16;;;;;;;10.20;6.37;;;;;;;9.61;97.82;63950.78;5052169;28;20189;-56
2023/04/20 02:42:41;;;;;;;8.80;6.90;;;;;;;9.77;100.00;63963.78;5053635;28;20652;-56
2023/04/20 02:45:08;;;;;;;23.07;7.13;;;;;;;9.72;99.67;63960.84;5053529;28;20664;-56
2023/04/20 02:47:33;;;;;;;8.73;6.63;;;;;;;9.58;99.51;63944.97;5053305;28;20264;-56
2023/04/20 02:49:58;;;;;;;10.00;6.90;;;;;;;9.59;98.43;63946.63;5035765;28;20276;-56
2023/04/20 02:52:24;;;;;;;8.00;6.50;;;;;;;9.75;98.77;63961.06;5053317;28;20189;-57
2023/04/20 02:54:49;;;;;;;9.73;7.40;;;;;;;9.60;98.47;63947.72;5053385;28;20292;-58
2023/04/20 02:57:15;;;;;;;8.57;6.43;;;;;;;9.42;97.48;63930.53;5053251;28;20186;-56
2023/04/20 02:59:40;;;;;;;9.83;6.73;;;;;;;9.37;97.41;63924.53;5053349;28;20209;-55
2023/04/20 03:02:06;;;;;;;9.83;6.47;;;;;;;9.34;97.94;63921.78;5053238;28;20645;-54
2023/04/20 03:04:31;;;;;;;9.80;7.03;;;;;;;9.32;97.44;63919.63;5052913;28;20270;-55
2023/04/20 03:06:57;;;;;;;11.40;7.13;;;;;;;9.48;97.57;63934.59;5053332;28;20705;-56
2023/04/20 03:09:23;;;;;;;9.47;6.63;;;;;;;9.40;97.53;63928.34;5053530;28;20228;-55
2023/04/20 03:11:49;;;;;;;8.60;6.10;;;;;;;9.50;97.38;63936.22;5053328;28;20189;-56
2023/04/20 03:14:15;;;;;;;9.13;6.87;;;;;;;9.34;96.02;63921.78;5051503;28;20221;-55
2023/04/20 03:16:40;;;;;;;9.50;6.93;;;;;;;9.34;98.51;63919.28;5053132;28;20205;-58
2023/04/20 03:19:06;;;;;;;6.90;5.77;;;;;;;9.26;96.54;63913.06;5053201;28;20217;-56
2023/04/20 03:21:32;;;;;;;9.57;6.37;;;;;;;9.36;96.48;63923.97;5053042;28;20515;-57
2023/04/20 03:23:58;;;;;;;9.70;7.30;;;;;;;9.30;96.46;63914.91;5052945;28;20218;-56
2023/04/20 03:26:24;;;;;;;6.60;5.90;;;;;;;9.24;96.00;63911.41;5052994;28;20193;-56
2023/04/20 03:28:50;;;;;;;12.40;7.10;;;;;;;9.19;96.59;63903.44;5053235;28;20679;-58
2023/04/20 03:31:15;;;;;;;8.40;6.17;;;;;;;9.12;95.67;63895.25;5053545;28;20564;-57
2023/04/20 03:33:41;;;;;;;9.53;6.60;;;;;;;9.17;96.62;63898.19;5035265;28;20581;-59
2023/04/20 03:36:08;;;;;;;14.47;9.33;;;;;;;9.28;97.32;63915.25;5052733;28;20225;-58
2023/04/20 03:38:33;;;;;;;9.83;7.03;;;;;;;9.31;96.54;63919.06;5034880;28;20206;-58
2023/04/20 03:40:59;;;;;;;9.10;6.90;;;;;;;9.38;96.40;63925.63;5052812;28;20243;-56
2023/04/20 03:43:24;;;;;;;10.20;5.80;;;;;;;9.38;95.71;63923.66;5052793;28;20292;-58
2023/04/20 03:45:49;;;;;;;10.73;7.27;;;;;;;9.40;98.36;63928.34;5052908;28;20655;-57
2023/04/20 03:48:15;;;;;;;12.03;9.43;;;;;;;9.52;97.39;63941.47;5052658;28;20657;-57
2023/04/20 03:50:40;;;;;;;9.73;7.07;;;;;;;9.58;95.03;63947.50;5052778;28;20193;-56
2023/04/20 03:53:06;;;;;;;9.60;6.53;;;;;;;9.53;95.02;63942.59;5052380;28;20225;-56
2023/04/20 03:55:31;;;;;;;11.73;7.70;;;;;;;9.79;94.55;63968.50;5052588;28;20276;-56
2023/04/20 03:57:56;;;;;;;8.50;6.80;;;;;;;9.75;93.92;63961.59;5052410;28;20206;-55
2023/04/20 04:00:22;;;;;;;11.03;7.13;;;;;;;9.93;96.51;63986.31;5052339;28;20664;-56
2023/04/20 04:02:54;;;;;;;10.77;6.53;;;;;;;9.88;93.48;63977.78;5052301;28;20193;-56
2023/04/20 04:05:19;;;;;;;8.13;6.17;;;;;;;9.95;93.36;63988.50;5052493;28;20663;-57
2023/04/20 04:07:45;;;;;;;7.90;5.63;;;;;;;10.09;92.09;64001.31;5052089;28;20193;-56
2023/04/20 04:10:10;;;;;;;9.90;6.40;;;;;;;10.09;94.08;63998.25;5052494;28;20193;-58
2023/04/20 04:12:36;;;;;;;8.50;5.93;;;;;;;10.14;95.49;64006.25;5052287;28;20236;-56
2023/04/20 04:15:01;;;;;;;8.10;6.63;;;;;;;10.11;94.38;64001.00;5052220;28;20701;-57
2023/04/20 04:17:33;;;;;;;11.23;6.93;;;;;;;10.14;93.01;64009.31;5052321;28;20231;-57
2023/04/20 04:19:59;;;;;;;9.13;6.83;;;;;;;10.10;93.67;64004.94;5052249;28;20194;-58
2023/04/20 04:22:24;;;;;;;9.00;6.40;;;;;;;10.17;93.51;64008.97;5051989;28;20228;-57
2023/04/20 04:24:50;;;;;;;8.10;6.57;;;;;;;9.96;93.31;63984.56;5051955;28;20205;-57
2023/04/20 04:27:17;;;;;;;9.20;6.33;;;;;;;9.99;92.82;63989.81;5051376;28;20193;-56
2023/04/20 04:29:43;;;;;;;8.17;6.63;;;;;;;10.18;92.52;64010.63;5051971;28;20794;-56
2023/04/20 04:32:10;;;;;;;11.53;8.77;;;;;;;10.31;100.00;64024.84;5051954;28;20189;-56
2023/04/20 04:34:36;;;;;;;9.33;7.67;;;;;;;11.19;100.00;64118.09;5051580;28;20218;-55
2023/04/20 04:37:01;;;;;;;10.23;8.07;;;;;;;12.27;100.00;64238.47;5051784;28;20218;-58
2023/04/20 04:39:27;;;;;;;10.37;7.70;;;;;;;12.44;100.00;64256.56;5052205;28;20209;-57
2023/04/20 04:41:52;;;;;;;9.80;7.27;;;;;;;12.45;100.00;64257.66;5052114;28;20190;-57
2023/04/20 04:44:18;;;;;;;11.47;6.60;;;;;;;12.48;89.01;64263.47;5052118;28;20202;-59
2023/04/20 04:46:46;;;;;;;10.20;7.53;;;;;;;12.34;90.95;64246.13;5051881;28;20201;-60
2023/04/20 04:49:11;;;;;;;12.10;7.23;;;;;;;12.39;94.89;64251.63;5051742;28;20675;-60
2023/04/20 04:51:37;;;;;;;12.77;8.10;;;;;;;12.51;94.29;64264.78;5051578;28;20197;-58
2023/04/20 04:54:03;;;;;;;26.53;7.90;;;;;;;12.22;91.78;64232.44;5051493;28;20220;-61
2023/04/20 04:56:28;;;;;;;11.03;8.40;;;;;;;12.00;86.27;64208.31;5051516;28;20190;-61
2023/04/20 04:58:53;;;;;;;12.43;7.03;;;;;;;11.51;84.80;64158.22;5051400;28;20288;-56
2023/04/20 05:01:20;;;;;;;21.07;7.63;;;;;;;11.39;84.67;64142.53;5051485;28;20186;-57
2023/04/20 05:03:45;;;;;;;11.07;7.40;;;;;;;11.06;86.03;64106.41;5051601;28;20701;-56
2023/04/20 05:06:11;;;;;;;10.03;8.13;;;;;;;10.56;86.62;64052.22;5051373;28;20190;-57
2023/04/20 05:08:36;;;;;;;10.87;8.23;;;;;;;10.45;88.72;64042.13;5051479;28;20237;-57
2023/04/20 05:11:02;;;;;;;11.50;8.53;;;;;;;10.48;88.49;64043.47;5051380;28;20725;-56
2023/04/20 05:13:27;;;;;;;9.97;7.77;;;;;;;10.35;87.92;64029.22;5051277;28;20255;-56
2023/04/20 05:15:52;;;;;;;12.00;8.47;;;;;;;10.17;89.19;64009.53;5051155;28;20228;-56
2023/04/20 05:18:18;;;;;;;12.63;9.50;;;;;;;9.91;91.07;63984.13;5051045;28;20713;-56
2023/04/20 05:20:43;;;;;;;11.80;9.37;;;;;;;9.99;91.11;63990.38;5051293;28;20620;-55
2023/04/20 05:23:09;;;;;;;17.57;10.57;;;;;;;10.04;92.14;63997.78;5051273;28;20210;-56
2023/04/20 05:25:34;;;;;;;13.80;9.33;;;;;;;9.98;90.65;63991.22;5051223;28;20185;-57
2023/04/20 05:28:00;;;;;;;13.73;8.93;;;;;;;9.90;91.09;63983.03;5051203;28;20315;-62
2023/04/20 05:30:25;;;;;;;17.40;9.00;;;;;;;10.06;91.28;64000.53;5051148;28;20216;-58
2023/04/20 05:32:51;;;;;;;13.93;9.77;;;;;;;10.04;90.53;63995.84;5051071;28;20616;-59
2023/04/20 05:35:16;;;;;;;13.03;9.43;;;;;;;10.03;91.01;63996.72;5050920;28;20200;-56
2023/04/20 05:37:42;;;;;;;12.63;8.83;;;;;;;10.08;90.93;64002.72;5049751;28;20213;-57
2023/04/20 05:40:08;;;;;;;13.23;9.17;;;;;;;10.13;90.46;64005.16;5050713;28;20581;-57
2023/04/20 05:42:34;;;;;;;13.90;9.57;;;;;;;10.19;90.52;64011.16;5051092;28;20194;-55
2023/04/20 05:44:59;;;;;;;12.73;9.97;;;;;;;10.05;90.21;63998.91;5051022;28;20219;-56
2023/04/20 05:47:26;;;;;;;15.87;9.47;;;;;;;10.00;90.65;63988.94;5050892;28;20185;-56
2023/04/20 05:49:52;;;;;;;13.67;9.97;;;;;;;10.09;90.61;64003.28;5050871;28;20217;-56
2023/04/20 05:52:18;;;;;;;12.77;9.30;;;;;;;10.05;90.71;63996.94;5050896;28;20186;-58
2023/04/20 05:54:43;;;;;;;16.90;8.93;;;;;;;10.11;90.48;64005.47;5050928;28;20221;-59
2023/04/20 05:57:09;;;;;;;15.37;9.50;;;;;;;10.04;91.52;63998.34;5050725;28;20189;-59
2023/04/20 05:59:35;;;;;;;14.23;9.83;;;;;;;10.02;91.67;63991.13;5050819;28;20217;-59
2023/04/20 06:02:00;;;;;;;16.27;8.63;;;;;;;9.96;91.65;63989.59;5050722;28;20196;-58
2023/04/20 06:04:26;;;;;;;15.10;9.73;;;;;;;10.07;90.87;63999.13;5050579;28;20205;-56
2023/04/20 06:06:52;;;;;;;16.77;10.23;;;;;;;9.94;91.83;63987.41;5050602;28;20197;-56
2023/04/20 06:09:17;;;;;;;13.13;9.10;;;;;;;9.98;92.55;63991.22;5033061;28;20209;-56
2023/04/20 06:11:43;;;;;;;16.03;10.37;;;;;;;9.98;94.77;63989.25;5050548;28;20189;-55
2023/04/20 06:14:10;;;;;;;14.27;10.87;;;;;;;9.93;94.70;63981.28;5050651;28;20218;-58
2023/04/20 06:16:36;;;;;;;16.57;10.80;;;;;;;10.00;94.51;63990.91;5050201;28;20268;-57
2023/04/20 06:19:02;;;;;;;14.57;9.73;;;;;;;9.93;94.28;63980.75;5050555;28;20293;-58
2023/04/20 06:21:27;;;;;;;13.67;9.53;;;;;;;10.02;95.70;63993.63;5050581;28;20197;-57
2023/04/20 06:23:53;;;;;;;12.53;9.63;;;;;;;10.00;94.87;63993.97;5050466;28;20245;-58
2023/04/20 06:26:18;;;;;;;13.13;9.97;;;;;;;9.96;94.94;63984.56;5050322;28;20316;-57
2023/04/20 06:28:44;;;;;;;16.33;10.60;;;;;;;9.90;95.19;63982.47;5050506;28;20209;-58
2023/04/20 06:31:10;;;;;;;15.97;10.33;;;;;;;9.92;95.54;63984.66;5032536;28;20356;-59
2023/04/20 06:33:35;;;;;;;16.80;10.33;;;;;;;10.06;95.01;63998.00;5050592;28;20248;-55
2023/04/20 06:36:02;;;;;;;12.23;10.20;;;;;;;10.09;94.57;64003.28;5050448;28;20659;-61
2023/04/20 06:38:27;;;;;;;15.13;10.53;;;;;;;10.19;94.45;64011.72;5050281;28;20218;-56
2023/04/20 06:40:53;;;;;;;15.97;11.03;;;;;;;10.21;93.90;64016.44;5050339;28;20204;-57
2023/04/20 06:43:18;;;;;;;16.40;11.13;;;;;;;10.14;94.58;64009.31;5050143;28;20209;-57
2023/04/20 06:45:44;;;;;;;14.77;11.10;;;;;;;10.12;94.52;64006.56;5032344;28;20190;-56
2023/04/20 06:48:10;;;;;;;16.93;11.67;;;;;;;10.11;95.57;64005.47;5050094;28;20210;-60
2023/04/20 06:50:35;;;;;;;13.40;10.40;;;;;;;10.14;93.77;64009.31;5053766;28;20319;-59
2023/04/20 06:53:04;;;;;;;16.20;10.83;;;;;;;10.11;94.11;64006.03;5035583;28;20706;-59
2023/04/20 06:55:30;;;;;;;15.40;10.20;;;;;;;10.17;93.61;64011.50;5053556;28;20197;-58
2023/04/20 06:57:55;;;;;;;16.07;10.53;;;;;;;10.09;94.88;64006.34;5053550;28;20212;-58
2023/04/20 07:00:20;;;;;;;14.93;10.83;;;;;;;10.05;95.92;63998.91;5053332;28;20193;-59
2023/04/20 07:02:50;;;;;;;18.47;11.07;;;;;;;10.10;95.50;64004.38;5053328;28;20732;-59
2023/04/20 07:05:16;;;;;;;17.17;11.67;;;;;;;10.01;96.46;63997.59;5053355;28;20200;-59
2023/04/20 07:07:42;;;;;;;15.57;11.27;;;;;;;9.92;96.76;63985.22;5053099;28;20197;-59
2023/04/20 07:10:09;;;;;;;16.33;11.57;;;;;;;10.04;96.97;63995.84;5053298;28;20182;-58
2023/04/20 07:12:36;;;;;;;14.43;10.33;;;;;;;9.96;97.43;63989.03;5052979;28;20373;-59
2023/04/20 07:15:03;;;;;;;15.80;10.33;;;;;;;10.07;97.91;63999.13;5053257;28;20239;-59
2023/04/20 07:17:29;;;;;;;19.97;11.30;;;;;;;10.06;97.10;63994.94;5053081;28;20193;-59
2023/04/20 07:19:55;;;;;;;14.10;10.40;;;;;;;10.26;97.05;64021.34;5052863;28;20219;-58
2023/04/20 07:22:21;;;;;;;15.40;10.77;;;;;;;10.22;96.18;64017.50;5053092;28;20268;-57
2023/04/20 07:24:46;;;;;;;17.73;11.23;;;;;;;10.38;95.58;64035.03;5052911;28;20230;-56
2023/04/20 07:27:12;;;;;;;15.50;11.10;;;;;;;10.30;96.34;64023.22;5052824;28;20774;-58
2023/04/20 07:29:37;;;;;;;16.03;11.47;;;;;;;10.30;95.98;64023.75;5034859;28;20221;-56
2023/04/20 07:32:03;;;;;;;17.83;11.70;;;;;;;10.34;95.91;64027.59;5052907;28;20185;-57
2023/04/20 07:34:28;;;;;;;14.70;10.23;;;;;;;10.51;95.28;64049.25;5034825;28;20677;-58
2023/04/20 07:36:54;;;;;;;14.77;10.33;;;;;;;10.47;94.57;64044.31;5052889;28;20193;-57
2023/04/20 07:39:19;;;;;;;13.27;9.97;;;;;;;10.42;93.09;64038.88;5053158;28;20679;-59
2023/04/20 07:41:44;;;;;;;17.13;10.77;;;;;;;10.35;95.35;64029.22;5052730;28;20189;-56
2023/04/20 07:44:12;;;;;;;23.00;11.97;;;;;;;10.58;95.83;64053.84;5052862;28;20205;-57
2023/04/20 07:46:37;;;;;;;40.30;14.17;;;;;;;10.91;94.13;64092.50;5052599;28;20238;-57
2023/04/20 07:49:03;;;;;;;17.97;10.57;;;;;;;10.83;91.59;64081.22;5052721;28;20639;-56
2023/04/20 07:51:29;;;;;;;15.30;10.27;;;;;;;10.69;91.17;64065.88;5052715;28;20190;-56
2023/04/20 07:53:55;;;;;;;18.47;11.00;;;;;;;10.87;90.86;64085.59;5052502;28;20244;-58
2023/04/20 07:56:20;;;;;;;13.20;9.67;;;;;;;10.93;89.75;64094.69;5052525;28;20195;-56
2023/04/20 07:58:46;;;;;;;13.57;9.40;;;;;;;10.84;89.13;64084.84;5052367;28;20237;-58
2023/04/20 08:01:11;;;;;;;16.33;9.93;;;;;;;11.09;89.74;64109.16;5051734;28;20201;-59
2023/04/20 08:03:37;;;;;;;20.43;9.80;;;;;;;11.33;86.85;64137.97;5052809;28;20723;-58
2023/04/20 08:06:02;;;;;;;12.00;9.20;;;;;;;11.30;86.73;64135.22;5052535;28;20190;-58
2023/04/20 08:08:28;;;;;;;11.87;9.50;;;;;;;11.41;87.50;64142.22;5052100;28;20668;-58
2023/04/20 08:10:57;;;;;;;14.37;9.57;;;;;;;11.57;85.65;64161.72;5052554;28;20224;-60
2023/04/20 08:13:22;;;;;;;11.37;8.73;;;;;;;11.69;84.52;64177.97;5052303;28;20256;-60
2023/04/20 08:15:47;;;;;;;12.43;9.17;;;;;;;11.45;84.16;64148.56;5052335;28;20671;-58
2023/04/20 08:18:13;;;;;;;14.03;9.50;;;;;;;11.79;83.72;64188.38;5034166;28;20213;-59
2023/04/20 08:20:38;;;;;;;18.57;10.07;;;;;;;11.84;82.01;64190.78;5052133;28;20272;-60
2023/04/20 08:23:04;;;;;;;12.13;8.90;;;;;;;11.78;82.46;64185.31;5052231;28;20224;-59
2023/04/20 08:25:31;;;;;;;14.47;9.17;;;;;;;11.64;83.13;64169.94;5051956;28;20655;-57
2023/04/20 08:27:56;;;;;;;15.80;9.73;;;;;;;11.80;83.78;64187.50;5052014;28;20270;-59
2023/04/20 08:30:22;;;;;;;14.83;9.13;;;;;;;11.92;83.16;64199.56;5052018;28;20197;-59
2023/04/20 08:32:47;;;;;;;19.00;10.70;;;;;;;12.08;81.96;64219.63;5051836;28;20282;-59
2023/04/20 08:35:13;;;;;;;18.43;9.97;;;;;;;11.99;82.39;64205.25;5052183;28;20201;-58
2023/04/20 08:37:38;;;;;;;12.10;9.03;;;;;;;11.51;83.52;64155.69;5034175;28;20247;-57
2023/04/20 08:40:04;;;;;;;14.10;10.80;;;;;;;11.56;84.71;64163.69;5051888;28;20221;-58
2023/04/20 08:42:30;;;;;;;16.93;9.07;;;;;;;11.59;84.62;64164.47;5051958;28;20202;-59
2023/04/20 08:44:57;;;;;;;12.03;8.37;;;;;;;11.61;84.39;64166.66;5051739;28;20648;-59
2023/04/20 08:47:23;;;;;;;11.50;8.30;;;;;;;11.37;84.57;64140.34;5051889;28;20208;-58
2023/04/20 08:49:53;;;;;;;14.03;8.43;;;;;;;11.46;83.99;64152.19;5051749;28;20213;-60
2023/04/20 08:52:19;;;;;;;12.67;9.37;;;;;;;11.41;84.52;64144.19;5051492;28;20236;-60
2023/04/20 08:54:44;;;;;;;13.70;8.67;;;;;;;11.65;83.30;64173.00;5051453;28;20671;-60
2023/04/20 08:57:09;;;;;;;17.47;9.47;;;;;;;11.55;83.35;64160.06;5051635;28;20224;-58
2023/04/20 08:59:36;;;;;;;9.67;8.67;;;;;;;11.72;83.39;64181.25;5051457;28;20662;-56
2023/04/20 09:02:10;;;;;;;9.87;8.10;;;;;;;11.73;81.67;64179.84;5051511;28;20277;-57
2023/04/20 09:04:35;;;;;;;11.97;8.73;;;;;;;11.67;80.98;64172.69;5051216;28;20669;-57
2023/04/20 09:07:01;;;;;;;10.20;8.73;;;;;;;11.77;81.80;64184.22;5051314;28;20238;-55
2023/04/20 09:09:27;;;;;;;14.17;9.53;;;;;;;11.62;81.37;64170.28;5051618;28;20249;-55
2023/04/20 09:12:04;;;;;;;14.83;9.27;;;;;;;11.67;82.00;64175.78;5051230;28;20239;-56
2023/04/20 09:14:30;;;;;;;13.07;9.23;;;;;;;11.69;81.44;64174.91;5051064;28;20221;-56
2023/04/20 09:17:01;;;;;;;13.40;9.97;;;;;;;11.83;81.34;64190.25;5051389;28;20242;-55
2023/04/20 09:19:30;;;;;;;12.77;9.50;;;;;;;11.93;80.51;64203.16;5051507;28;20702;-61
2023/04/20 09:22:02;;;;;;;11.30;9.10;;;;;;;11.93;80.38;64198.13;5051331;28;20229;-60
2023/04/20 09:24:36;;;;;;;14.47;9.00;;;;;;;11.82;80.76;64189.13;5051218;28;20216;-58
2023/04/20 09:27:22;;;;;;;13.17;9.27;;;;;;;11.92;80.55;64202.09;5051083;28;20190;-60
2023/04/20 09:30:02;;;;;;;12.23;9.03;;;;;;;11.89;80.49;64199.34;5050451;28;20288;-60
2023/04/20 09:32:28;;;;;;;11.43;7.90;;;;;;;12.17;79.74;64226.94;5051076;28;20267;-59
2023/04/20 09:34:53;;;;;;;12.30;9.13;;;;;;;12.54;77.91;64270.06;5051007;28;20283;-56
2023/04/20 09:37:21;;;;;;;10.37;8.30;;;;;;;12.82;75.49;64298.25;5051138;28;20185;-57
2023/04/20 09:39:46;;;;;;;13.17;9.70;;;;;;;12.89;76.81;64303.38;5050940;28;20209;-55
2023/04/20 09:42:13;;;;;;;13.47;8.40;;;;;;;12.63;76.68;64279.91;5051006;28;20187;-56
2023/04/20 09:44:39;;;;;;;11.00;7.60;;;;;;;12.92;75.23;64308.66;5050723;28;20212;-57
2023/04/20 09:47:06;;;;;;;14.83;7.87;;;;;;;12.73;76.06;64288.34;5051043;28;20193;-58
2023/04/20 09:49:32;;;;;;;12.53;8.47;;;;;;;13.00;75.79;64315.47;5050744;28;20666;-58
2023/04/20 09:52:00;;;;;;;11.77;8.97;;;;;;;12.88;75.03;64301.75;5050668;28;20277;-58
2023/04/20 09:54:27;;;;;;;10.13;8.37;;;;;;;13.20;74.81;64339.97;5050440;28;20221;-58
2023/04/20 09:56:53;;;;;;;12.03;8.27;;;;;;;13.53;72.64;64372.53;5050725;28;20192;-60
2023/04/20 09:59:20;;;;;;;11.50;8.87;;;;;;;13.49;72.16;64374.31;5051031;28;20714;-60
2023/04/20 10:01:46;;;;;;;12.63;8.70;;;;;;;13.65;72.14;64388.25;5050636;28;20671;-60
2023/04/20 10:04:13;;;;;;;13.03;8.07;;;;;;;13.84;69.53;64409.09;5050538;28;20209;-60
2023/04/20 10:06:39;;;;;;;12.07;7.83;;;;;;;13.58;70.91;64378.59;5050660;28;20574;-59
2023/04/20 10:09:07;;;;;;;11.40;7.97;;;;;;;13.22;71.89;64342.16;5050527;28;20275;-60
2023/04/20 10:11:41;;;;;;;11.10;8.20;;;;;;;13.81;72.07;64405.81;5050494;28;20190;-58
2023/04/20 10:14:23;;;;;;;10.87;8.00;;;;;;;13.46;71.31;64367.94;5050907;28;20221;-59
2023/04/20 10:17:07;;;;;;;12.70;8.77;;;;;;;13.08;72.88;64326.78;5050723;28;20169;-59
2023/04/20 10:19:39;;;;;;;10.53;7.90;;;;;;;13.56;71.46;64380.91;5050824;28;20274;-59
2023/04/20 10:22:05;;;;;;;11.13;7.67;;;;;;;13.64;71.25;64387.69;5050508;28;20190;-60
2023/04/20 10:24:31;;;;;;;13.33;9.23;;;;;;;13.69;71.00;64395.19;5052504;28;20213;-60
2023/04/20 10:26:57;;;;;;;10.03;8.47;;;;;;;13.86;70.42;64411.84;5053869;28;20185;-60
2023/04/20 10:29:27;;;;;;;10.13;8.67;;;;;;;13.71;69.99;64392.31;5053656;28;20205;-56
2023/04/20 10:31:54;;;;;;;13.43;9.03;;;;;;;13.91;69.85;64419.34;5053757;28;20663;-55
2023/04/20 10:34:34;;;;;;;15.17;10.43;;;;;;;13.99;69.81;64423.06;5053687;28;20220;-56
2023/04/20 10:37:12;;;;;;;10.37;8.63;;;;;;;14.15;69.02;64443.72;5053795;28;20251;-56
2023/04/20 10:39:47;;;;;;;12.70;7.80;;;;;;;14.41;67.75;64471.75;5053774;28;20205;-55
2023/04/20 10:42:13;;;;;;;8.27;6.97;;;;;;;14.03;68.48;64429.97;5035615;28;20189;-57
2023/04/20 10:44:52;;;;;;;10.38;8.10;;;;;;;13.90;68.37;64415.69;5053743;28;20217;-55
2023/04/20 10:47:26;;;;;;;8.53;7.37;;;;;;;14.01;68.38;64428.34;5053705;28;20193;-57
2023/04/20 10:49:51;;;;;;;12.17;7.87;;;;;;;14.09;68.11;64434.03;5053571;28;20209;-55
2023/04/20 10:52:17;;;;;;;11.40;7.40;;;;;;;14.44;66.84;64472.50;5053397;28;20616;-56
2023/04/20 10:54:42;;;;;;;8.40;7.00;;;;;;;14.56;65.98;64490.22;5053313;28;20221;-55
2023/04/20 10:57:07;;;;;;;13.27;9.30;;;;;;;15.08;65.14;64542.84;5053456;28;20225;-56
2023/04/20 10:59:36;;;;;;;8.23;6.82;;;;;;;15.89;60.69;64633.41;5053172;28;20221;-56
2023/04/20 11:02:06;;;;;;;10.20;6.97;;;;;;;15.02;62.22;64538.25;5053669;28;20202;-55
2023/04/20 11:04:33;;;;;;;7.45;6.65;;;;;;;15.64;60.26;64605.88;5053247;28;20699;-56
2023/04/20 11:07:09;;;;;;;8.90;6.78;;;;;;;16.33;58.13;64676.19;5053418;28;20272;-59
2023/04/20 11:09:37;;;;;;;10.88;6.32;;;;;;;16.39;56.84;64685.88;5053074;28;20216;-59
2023/04/20 11:12:10;;;;;;;14.10;7.68;;;;;;;16.86;56.80;64737.13;5053291;28;20201;-59
2023/04/20 11:14:37;;;;;;;10.70;7.38;;;;;;;17.05;55.27;64757.50;5052910;28;20267;-60
2023/04/20 11:17:04;;;;;;;13.15;7.07;;;;;;;16.35;56.63;64681.47;5053341;28;20190;-59
2023/04/20 11:19:33;;;;;;;7.95;5.85;;;;;;;16.89;54.89;64740.41;5053059;28;20225;-60
2023/04/20 11:21:59;;;;;;;10.65;5.80;;;;;;;17.34;53.16;64789.44;5053056;28;20201;-59
2023/04/20 11:24:27;;;;;;;10.55;6.47;;;;;;;17.93;50.65;64853.94;5053548;28;20307;-56
2023/04/20 11:26:54;;;;;;;7.93;6.15;;;;;;;16.59;54.19;64707.94;5053272;28;20234;-58